createdAt,value
2017-09-11T03:29:42.311Z,91.36
2017-09-11T03:32:10.143Z,91.59
2017-09-11T03:34:37.892Z,91.43
2017-09-11T03:37:05.651Z,91.02
2017-09-11T03:39:33.393Z,91.83
2017-09-11T03:42:01.697Z,91.64
2017-09-11T03:44:29.523Z,91.31
2017-09-11T03:46:57.325Z,91.36
2017-09-11T03:49:25.098Z,90.98
2017-09-11T03:51:52.856Z,90.88
2017-09-11T03:54:20.597Z,91.25
2017-09-11T03:56:48.494Z,91.88
2017-09-11T03:59:16.190Z,92.11
2017-09-11T04:01:43.920Z,91.68
2017-09-11T04:04:11.690Z,91.18
2017-09-11T04:06:39.547Z,91.39
2017-09-11T04:09:07.297Z,91.39
2017-09-11T04:11:36.302Z,91.33
2017-09-11T04:14:04.145Z,91.27
2017-09-11T04:16:31.898Z,91.62
2017-09-11T04:18:59.606Z,91.48
2017-09-11T04:21:27.371Z,91.06
2017-09-11T04:23:55.192Z,90.80
2017-09-11T04:26:22.924Z,90.81
2017-09-11T04:28:51.147Z,91.10
2017-09-11T04:31:18.912Z,91.15
2017-09-11T04:33:47.551Z,91.22
2017-09-11T04:36:15.320Z,91.26
2017-09-11T04:38:43.122Z,90.89
2017-09-11T04:41:10.874Z,90.98
2017-09-11T04:43:38.667Z,91.41
2017-09-11T04:46:06.646Z,91.46
2017-09-11T04:48:34.851Z,92.36
2017-09-11T04:51:02.664Z,92.34
2017-09-11T04:53:30.461Z,91.93
2017-09-11T04:55:58.166Z,91.78
2017-09-11T04:58:25.934Z,91.98
2017-09-11T05:00:53.684Z,92.10
2017-09-11T05:03:21.428Z,92.43
2017-09-11T05:05:49.268Z,92.73
2017-09-11T05:08:17.004Z,92.12
2017-09-11T05:10:44.730Z,92.27
2017-09-11T05:13:12.475Z,91.91
2017-09-11T05:15:40.226Z,91.36
2017-09-11T05:18:08.085Z,91.45
2017-09-11T05:20:35.804Z,91.25
2017-09-11T05:23:03.618Z,91.21
2017-09-11T05:25:31.334Z,91.10
2017-09-11T05:27:59.162Z,91.47
2017-09-11T05:30:26.969Z,91.48
2017-09-11T05:32:54.758Z,91.60
2017-09-11T05:35:22.483Z,91.59
2017-09-11T05:37:50.347Z,91.34
2017-09-11T05:40:18.077Z,91.51
2017-09-11T05:42:45.901Z,91.76
2017-09-11T05:45:13.681Z,91.40
2017-09-11T05:47:41.417Z,91.85
2017-09-11T05:50:09.208Z,91.94
2017-09-11T05:52:37.045Z,91.36
2017-09-11T05:55:04.843Z,91.42
2017-09-11T05:57:32.606Z,91.59
2017-09-11T06:00:00.365Z,91.70
2017-09-11T06:02:28.260Z,91.91
2017-09-11T06:04:56.080Z,92.22
2017-09-11T06:07:23.840Z,92.34
2017-09-11T06:09:51.562Z,92.20
2017-09-11T06:12:19.342Z,91.80
2017-09-11T06:14:47.209Z,91.72
2017-09-11T06:17:14.994Z,91.80
2017-09-11T06:19:42.854Z,91.73
2017-09-11T06:22:10.634Z,91.75
2017-09-11T06:24:38.540Z,92.25
2017-09-11T06:27:06.318Z,92.29
2017-09-11T06:29:34.389Z,91.66
2017-09-11T06:32:02.239Z,91.42
2017-09-11T06:34:30.052Z,91.29
2017-09-11T06:36:57.853Z,91.51
2017-09-11T06:39:25.686Z,91.34
2017-09-11T06:41:53.528Z,91.36
2017-09-11T06:44:21.349Z,90.94
2017-09-11T06:46:49.044Z,91.15
2017-09-11T06:49:16.808Z,91.06
2017-09-11T06:51:44.615Z,90.45
2017-09-11T06:54:12.335Z,90.08
2017-09-11T06:56:40.135Z,89.51
2017-09-11T06:59:07.854Z,89.23
2017-09-11T07:01:35.716Z,89.46
2017-09-11T07:04:03.503Z,89.90
2017-09-11T07:06:31.469Z,89.73
2017-09-11T07:08:59.334Z,90.61
2017-09-11T07:11:27.172Z,90.32
2017-09-11T07:13:55.010Z,89.62
2017-09-11T07:16:22.855Z,89.51
2017-09-11T07:18:51.030Z,90.17
2017-09-11T07:21:18.930Z,90.69
2017-09-11T07:23:46.993Z,90.14
2017-09-11T07:26:14.777Z,90.57
2017-09-11T07:28:42.653Z,90.35
2017-09-11T07:31:10.361Z,89.80
2017-09-11T07:33:38.187Z,89.23
2017-09-11T07:36:05.990Z,88.37
2017-09-11T07:38:33.828Z,88.83
2017-09-11T07:41:01.627Z,88.04
2017-09-11T07:43:29.374Z,88.40
2017-09-11T07:45:57.105Z,88.22
2017-09-11T07:48:24.865Z,88.80
2017-09-11T07:50:53.190Z,88.36
2017-09-11T07:53:20.899Z,88.22
2017-09-11T07:55:48.686Z,88.08
2017-09-11T07:58:16.397Z,88.13
2017-09-11T08:00:44.111Z,85.23
2017-09-11T08:03:11.841Z,85.29
2017-09-11T08:05:39.557Z,86.96
2017-09-11T08:08:07.347Z,87.55
2017-09-11T08:10:36.375Z,86.89
2017-09-11T08:13:04.113Z,86.73
2017-09-11T08:15:31.834Z,86.69
2017-09-11T08:17:59.571Z,86.81
2017-09-11T08:20:27.334Z,87.10
2017-09-11T08:22:55.152Z,87.40
2017-09-11T08:25:23.894Z,84.77
2017-09-11T08:27:51.895Z,86.18
2017-09-11T08:30:19.759Z,86.14
2017-09-11T08:32:47.518Z,86.46
2017-09-11T08:35:15.305Z,83.43
2017-09-11T08:37:49.145Z,83.45
2017-09-11T08:40:16.945Z,84.03
2017-09-11T08:42:44.722Z,84.85
2017-09-11T08:45:12.437Z,85.17
2017-09-11T08:47:40.297Z,85.28
2017-09-11T08:50:08.186Z,84.23
2017-09-11T08:52:35.907Z,86.40
2017-09-11T08:55:03.819Z,86.52
2017-09-11T08:57:31.532Z,85.86
2017-09-11T08:59:59.593Z,85.90
2017-09-11T09:02:27.427Z,86.24
2017-09-11T09:04:55.831Z,87.41
2017-09-11T09:07:24.315Z,86.80
2017-09-11T09:09:52.158Z,84.98
2017-09-11T09:12:21.136Z,85.49
2017-09-11T09:14:49.054Z,84.58
2017-09-11T09:17:17.549Z,84.09
2017-09-11T09:19:45.365Z,85.86
2017-09-11T09:22:13.128Z,86.82
2017-09-11T09:24:41.130Z,85.79
2017-09-11T09:27:08.912Z,86.10
2017-09-11T09:29:36.680Z,86.52
2017-09-11T09:32:04.399Z,86.45
2017-09-11T09:34:32.256Z,86.70
2017-09-11T09:37:00.030Z,86.30
2017-09-11T09:39:27.863Z,86.52
2017-09-11T09:41:55.640Z,86.13
2017-09-11T09:44:23.398Z,85.35
2017-09-11T09:46:51.203Z,85.49
2017-09-11T09:49:19.126Z,83.09
2017-09-11T09:51:46.954Z,83.65
2017-09-11T09:54:14.753Z,83.25
2017-09-11T09:56:43.098Z,83.73
2017-09-11T09:59:11.017Z,85.28
2017-09-11T10:01:39.241Z,86.08
2017-09-11T10:04:08.609Z,86.63
2017-09-11T10:06:36.516Z,86.47
2017-09-11T10:09:04.385Z,86.37
2017-09-11T10:11:32.491Z,85.61
2017-09-11T10:14:00.740Z,85.20
2017-09-11T10:16:28.471Z,85.79
2017-09-11T10:18:56.294Z,86.27
2017-09-11T10:21:24.201Z,85.73
2017-09-11T10:23:51.937Z,86.01
2017-09-11T10:26:19.752Z,86.18
2017-09-11T10:28:47.504Z,86.32
2017-09-11T10:31:15.316Z,86.76
2017-09-11T10:33:43.139Z,87.32
2017-09-11T10:36:11.143Z,87.55
2017-09-11T10:38:38.952Z,87.93
2017-09-11T10:41:06.710Z,88.66
2017-09-11T10:43:34.892Z,89.48
2017-09-11T10:46:02.767Z,89.54
2017-09-11T10:48:30.617Z,89.45
2017-09-11T10:50:58.324Z,89.15
2017-09-11T10:53:26.149Z,89.04
2017-09-11T10:55:53.932Z,89.47
2017-09-11T10:58:21.637Z,88.49
2017-09-11T11:00:49.480Z,88.35
2017-09-11T11:03:17.232Z,88.37
2017-09-11T11:05:45.061Z,88.82
2017-09-11T11:08:14.488Z,88.77
2017-09-11T11:10:42.545Z,88.28
2017-09-11T11:13:10.343Z,87.15
2017-09-11T11:15:38.197Z,87.75
2017-09-11T11:18:05.928Z,88.92
2017-09-11T11:20:33.717Z,88.26
2017-09-11T11:23:01.509Z,88.36
2017-09-11T11:25:29.281Z,87.92
2017-09-11T11:27:57.081Z,87.74
2017-09-11T11:30:24.829Z,87.42
2017-09-11T11:32:52.657Z,87.17
2017-09-11T11:35:20.457Z,86.45
2017-09-11T11:37:48.217Z,86.58
2017-09-11T11:40:15.998Z,86.69
2017-09-11T11:42:43.862Z,85.65
2017-09-11T11:45:11.653Z,86.86
2017-09-11T11:47:39.424Z,87.23
2017-09-11T11:50:07.197Z,87.61
2017-09-11T11:52:35.536Z,87.07
2017-09-11T11:55:03.316Z,87.43
2017-09-11T11:57:31.377Z,87.82
2017-09-11T11:59:59.127Z,87.89
2017-09-11T12:02:27.215Z,87.83
2017-09-11T12:04:54.919Z,87.52
2017-09-11T12:07:22.724Z,87.36
2017-09-11T12:09:50.467Z,88.03
2017-09-11T12:12:18.296Z,87.59
2017-09-11T12:14:46.022Z,88.02
2017-09-11T12:17:13.796Z,88.34
2017-09-11T12:19:41.560Z,88.29
2017-09-11T12:22:09.274Z,88.06
2017-09-11T12:24:37.180Z,87.75
2017-09-11T12:27:04.902Z,87.67
2017-09-11T12:29:32.675Z,87.93
2017-09-11T12:32:00.481Z,87.07
2017-09-11T12:34:28.258Z,87.71
2017-09-11T12:36:56.092Z,87.12
2017-09-11T12:39:23.852Z,86.49
2017-09-11T12:41:51.755Z,86.99
2017-09-11T12:44:19.861Z,87.29
2017-09-11T12:46:47.613Z,87.82
2017-09-11T12:49:15.457Z,87.57
2017-09-11T12:51:43.175Z,87.98
2017-09-11T12:54:11.018Z,87.58
2017-09-11T12:56:38.771Z,87.98
2017-09-11T12:59:06.593Z,87.80
2017-09-11T13:01:34.376Z,88.17
2017-09-11T13:04:02.153Z,88.36
2017-09-11T13:06:30.246Z,88.80
2017-09-11T13:08:58.028Z,88.95
2017-09-11T13:11:25.824Z,89.53
2017-09-11T13:13:53.539Z,88.19
2017-09-11T13:16:21.353Z,87.52
2017-09-11T13:18:49.102Z,87.06
2017-09-11T13:21:16.927Z,88.01
2017-09-11T13:23:44.657Z,88.12
2017-09-11T13:26:12.540Z,87.04
2017-09-11T13:28:40.322Z,86.82
2017-09-11T13:31:08.086Z,85.94
2017-09-11T13:33:35.892Z,84.61
2017-09-11T13:36:03.659Z,85.01
2017-09-11T13:38:31.387Z,86.01
2017-09-11T13:40:59.239Z,86.84
2017-09-11T13:43:27.062Z,86.50
2017-09-11T13:45:54.867Z,86.55
2017-09-11T13:48:22.610Z,86.88
2017-09-11T13:50:50.866Z,86.63
2017-09-11T13:53:18.602Z,87.65
2017-09-11T13:55:47.004Z,87.81
2017-09-11T13:58:14.910Z,87.87
2017-09-11T14:00:42.672Z,87.41
2017-09-11T14:03:10.412Z,87.41
2017-09-11T14:05:39.518Z,87.04
2017-09-11T14:08:07.354Z,86.53
2017-09-11T14:10:35.256Z,85.50
2017-09-11T14:13:04.119Z,85.20
2017-09-11T14:15:33.011Z,84.75
2017-09-11T14:18:00.746Z,84.55
2017-09-11T14:20:28.505Z,87.04
2017-09-11T14:22:56.395Z,87.73
2017-09-11T14:25:25.088Z,87.09
2017-09-11T14:27:52.924Z,84.31
2017-09-11T14:30:20.777Z,83.90
2017-09-11T14:32:48.578Z,84.17
2017-09-11T14:35:16.340Z,85.61
2017-09-11T14:37:44.168Z,85.48
2017-09-11T14:40:12.232Z,84.56
2017-09-11T14:42:40.002Z,84.38
2017-09-11T14:45:07.864Z,83.96
2017-09-11T14:47:35.671Z,84.28
2017-09-11T14:50:03.478Z,83.06
2017-09-11T14:52:31.310Z,83.53
2017-09-11T14:54:59.071Z,85.00
2017-09-11T14:57:28.057Z,86.25
2017-09-11T14:59:55.795Z,87.77
2017-09-11T15:02:23.682Z,88.66
2017-09-11T15:04:51.519Z,88.74
2017-09-11T15:07:19.260Z,89.19
2017-09-11T15:09:47.045Z,89.37
2017-09-11T15:12:15.456Z,86.70
2017-09-11T15:14:43.292Z,88.58
2017-09-11T15:17:11.068Z,83.73
2017-09-11T15:19:39.718Z,83.73
2017-09-11T15:22:08.007Z,84.00
2017-09-11T15:24:36.144Z,83.21
2017-09-11T15:27:03.985Z,82.79
2017-09-11T15:29:31.835Z,83.84
2017-09-11T15:31:59.667Z,83.81
2017-09-11T15:34:27.606Z,82.10
2017-09-11T15:36:55.468Z,81.88
2017-09-11T15:39:23.344Z,82.37
2017-09-11T15:41:51.926Z,82.97
2017-09-11T15:44:19.665Z,84.07
2017-09-11T15:46:48.188Z,84.59
2017-09-11T15:49:15.987Z,83.39
2017-09-11T15:51:43.769Z,85.34
2017-09-11T15:54:13.372Z,84.12
2017-09-11T15:56:41.420Z,84.06
2017-09-11T15:59:09.261Z,84.84
2017-09-11T16:01:37.060Z,83.23
2017-09-11T16:04:04.840Z,82.87
2017-09-11T16:06:32.603Z,82.75
2017-09-11T16:09:00.339Z,83.23
2017-09-11T16:11:28.139Z,84.78
2017-09-11T16:13:56.289Z,85.16
2017-09-11T16:16:24.053Z,83.63
2017-09-11T16:18:51.884Z,82.61
2017-09-11T16:21:19.781Z,84.07
2017-09-11T16:23:47.640Z,84.52
2017-09-11T16:26:15.514Z,86.19
2017-09-11T16:28:43.687Z,87.47
2017-09-11T16:31:11.764Z,88.03
2017-09-11T16:33:39.989Z,89.06
2017-09-11T16:36:07.777Z,88.62
2017-09-11T16:38:35.653Z,88.31
2017-09-11T16:41:03.516Z,87.21
2017-09-11T16:43:31.271Z,87.81
2017-09-11T16:45:59.036Z,87.90
2017-09-11T16:48:26.865Z,88.15
2017-09-11T16:50:54.627Z,88.54
2017-09-11T16:53:22.417Z,88.83
2017-09-11T16:55:50.270Z,89.55
2017-09-11T16:58:17.977Z,89.83
2017-09-11T17:00:45.796Z,89.14
2017-09-11T17:03:13.919Z,88.60
2017-09-11T17:05:41.902Z,88.48
2017-09-11T17:08:09.649Z,89.14
2017-09-11T17:10:37.793Z,89.05
2017-09-11T17:13:05.576Z,89.16
2017-09-11T17:15:33.308Z,89.21
2017-09-11T17:18:01.332Z,89.16
2017-09-11T17:20:29.267Z,89.64
2017-09-11T17:22:57.153Z,90.24
2017-09-11T17:25:25.287Z,90.03
2017-09-11T17:27:53.090Z,89.67
2017-09-11T17:30:20.877Z,89.52
2017-09-11T17:32:48.645Z,89.52
2017-09-11T17:35:16.421Z,89.48
2017-09-11T17:37:44.244Z,89.11
2017-09-11T17:40:12.071Z,89.20
2017-09-11T17:42:39.926Z,89.32
2017-09-11T17:45:08.908Z,89.13
2017-09-11T17:47:37.771Z,88.95
2017-09-11T17:50:05.563Z,89.87
2017-09-11T17:52:33.408Z,89.66
2017-09-11T17:55:01.253Z,89.36
2017-09-11T17:57:29.036Z,89.17
2017-09-11T17:59:57.468Z,89.34
2017-09-11T18:02:25.292Z,89.50
2017-09-11T18:04:53.202Z,89.62
2017-09-11T18:07:21.019Z,89.26
2017-09-11T18:09:50.120Z,88.91
2017-09-11T18:12:18.291Z,88.74
2017-09-11T18:14:46.221Z,88.50
2017-09-11T18:17:14.043Z,89.39
2017-09-11T18:19:41.860Z,88.63
2017-09-11T18:22:11.189Z,88.47
2017-09-11T18:24:39.102Z,87.93
2017-09-11T18:27:07.075Z,88.32
2017-09-11T18:29:34.844Z,88.18
2017-09-11T18:32:03.744Z,88.81
2017-09-11T18:34:31.908Z,89.91
2017-09-11T18:37:00.045Z,89.64
2017-09-11T18:39:31.548Z,89.51
2017-09-11T18:41:59.767Z,89.41
2017-09-11T18:44:27.749Z,89.48
2017-09-11T18:46:55.601Z,89.22
2017-09-11T18:49:24.256Z,89.47
2017-09-11T18:51:52.125Z,90.15
2017-09-11T18:54:19.988Z,89.68
2017-09-11T18:56:47.791Z,89.74
2017-09-11T18:59:15.561Z,89.93
2017-09-11T19:01:43.460Z,90.53
2017-09-11T19:04:11.311Z,90.87
2017-09-11T19:06:39.204Z,90.92
2017-09-11T19:09:07.113Z,90.88
2017-09-11T19:11:35.546Z,90.44
2017-09-11T19:59:02.196Z,90.51
2017-09-11T20:01:30.425Z,90.97
2017-09-11T20:03:58.224Z,91.08
2017-09-11T20:06:26.064Z,90.58
2017-09-11T20:08:53.828Z,90.58
2017-09-11T20:11:21.675Z,91.42
2017-09-11T20:13:49.504Z,90.96
2017-09-11T20:16:17.370Z,90.69
2017-09-11T20:18:45.277Z,90.65
2017-09-11T20:21:13.130Z,90.40
2017-09-11T20:23:40.890Z,90.83
2017-09-11T20:26:08.666Z,90.54
2017-09-11T20:28:36.462Z,90.28
2017-09-11T20:31:04.241Z,90.40
2017-09-11T20:33:32.049Z,90.27
2017-09-11T20:35:59.817Z,90.18
2017-09-11T20:38:27.577Z,90.42
2017-09-11T20:40:55.459Z,90.31
2017-09-11T20:43:23.294Z,90.45
2017-09-11T20:45:51.192Z,90.63
2017-09-11T20:48:19.000Z,90.98
2017-09-11T20:50:47.209Z,90.75
2017-09-11T20:53:14.972Z,90.94
2017-09-11T20:55:42.738Z,91.30
2017-09-11T20:58:10.440Z,90.82
2017-09-11T21:00:38.194Z,90.79
2017-09-11T21:03:05.962Z,90.62
2017-09-11T21:05:33.932Z,90.55
2017-09-11T21:08:01.662Z,90.38
2017-09-11T21:10:29.436Z,90.45
2017-09-11T21:12:57.145Z,90.75
2017-09-11T21:15:24.876Z,90.88
2017-09-11T21:17:52.602Z,90.75
2017-09-11T21:20:20.473Z,90.64
2017-09-11T21:22:48.165Z,90.53
2017-09-11T21:25:15.912Z,91.37
2017-09-11T21:27:44.620Z,91.41
2017-09-11T21:30:12.332Z,91.20
2017-09-11T21:32:40.114Z,90.93
2017-09-11T21:35:07.858Z,90.92
2017-09-11T21:37:35.672Z,91.08
2017-09-11T21:40:03.451Z,91.16
2017-09-11T21:42:31.140Z,90.93
2017-09-11T21:44:58.918Z,90.92
2017-09-11T21:47:26.667Z,90.85
2017-09-11T21:49:54.391Z,91.13
2017-09-11T21:52:22.168Z,90.93
2017-09-11T21:54:49.951Z,90.94
2017-09-11T21:57:18.281Z,90.94
2017-09-11T21:59:46.207Z,90.78
2017-09-11T22:02:13.926Z,90.69
2017-09-11T22:04:41.722Z,90.92
2017-09-11T22:07:09.789Z,90.94
2017-09-11T22:09:39.153Z,90.66
2017-09-11T22:12:06.933Z,90.68
2017-09-11T22:14:34.658Z,90.52
2017-09-11T22:17:02.346Z,90.79
2017-09-11T22:19:30.070Z,90.64
2017-09-11T22:21:57.780Z,90.44
2017-09-11T22:24:25.465Z,90.70
2017-09-11T22:26:53.203Z,90.73
2017-09-11T22:29:20.913Z,90.89
2017-09-11T22:31:48.674Z,91.03
2017-09-11T22:34:16.385Z,91.41
2017-09-11T22:36:44.096Z,91.55
2017-09-11T22:39:11.897Z,91.48
2017-09-11T22:41:39.665Z,91.50
2017-09-11T22:44:08.104Z,91.18
2017-09-11T22:46:35.856Z,90.94
2017-09-11T22:49:03.684Z,91.17
2017-09-11T22:51:31.430Z,91.73
2017-09-11T22:53:59.215Z,91.29
2017-09-11T22:56:26.908Z,91.18
2017-09-11T22:58:54.670Z,91.34
2017-09-11T23:01:22.470Z,90.95
2017-09-11T23:03:50.190Z,90.84
2017-09-11T23:06:17.983Z,90.60
2017-09-11T23:08:45.721Z,90.51
2017-09-11T23:11:13.702Z,90.93
2017-09-11T23:13:41.502Z,90.98
2017-09-11T23:16:09.284Z,90.62
2017-09-11T23:18:37.149Z,90.15
2017-09-11T23:21:05.266Z,91.03
2017-09-11T23:23:33.465Z,91.03
2017-09-11T23:26:01.298Z,91.04
2017-09-11T23:28:29.044Z,91.61
2017-09-11T23:30:56.834Z,91.64
2017-09-11T23:33:24.623Z,91.19
2017-09-11T23:35:52.333Z,90.47
2017-09-11T23:38:20.041Z,90.69
2017-09-11T23:40:47.900Z,91.16
2017-09-11T23:43:15.609Z,90.90
2017-09-11T23:45:43.325Z,90.68
2017-09-11T23:48:11.048Z,90.69
2017-09-11T23:50:38.747Z,90.53
2017-09-11T23:53:07.304Z,90.42
2017-09-11T23:55:35.077Z,90.19
2017-09-11T23:58:02.830Z,90.01
